This is the latest recevied weather packets stored in our database for station/object WMKM. If no packets are shown the sender has not sent any weather packets the latest 10 day(s).
| Time | Temp. | Humidity | Pressure | Rain* | Wind** | Luminosity | Snow |
|---|---|---|---|---|---|---|---|
| 1777273841 | 25.56° C | 88% | 1007 hPa | - | - | - | - |
| 1777270227 | 30° C | 79% | 1007 hPa | - | - | - | - |
| 1777266627 | 31.67° C | 66% | 1008 hPa | - | - | - | - |
| 1777263024 | 31.67° C | 66% | 1009 hPa | - | - | - | - |
| 1777259427 | 30.56° C | 74% | 1010 hPa | - | - | - | - |
| 1777255847 | 30° C | 79% | 1010 hPa | - | - | - | - |
| 1777252227 | 27.78° C | 83% | 1009 hPa | - | - | - | - |
| 1777248627 | 25° C | 94% | 1009 hPa | - | - | - | - |
| 1777245026 | 23.89° C | 94% | 1008 hPa | - | - | - | - |
| 1777241446 | 23.89° C | 94% | 1007 hPa | - | - | - | - |
| 1777237826 | 25° C | 94% | 1007 hPa | - | - | - | - |
| 1777234227 | 25° C | 94% | 1007 hPa | - | - | - | - |
| 1777230630 | 25° C | 94% | 1007 hPa | - | - | - | - |
| 1777227041 | 25° C | 94% | 1008 hPa | - | - | - | - |
| 1777223426 | 25.56° C | 88% | 1009 hPa | - | - | - | - |
| 1777219827 | 25.56° C | 88% | 1009 hPa | - | - | - | - |
| 1777216225 | 25.56° C | 88% | 1009 hPa | - | - | - | - |
| 1777212641 | 25.56° C | 88% | 1009 hPa | - | - | - | - |
| 1777209033 | 26.67° C | 88% | 1008 hPa | - | - | - | - |
| 1777205425 | 27.78° C | 88% | 1008 hPa | - | - | - | - |
* Rain since midnight (hover to see other rain measurements)
** Current wind speed in m/s (hover to see current wind gust speed)